Time;durP1;ratioP1;P1;durP2;ratioP2;P2;SDS_P1;SDS_P2;PMS_P1;PMS_P2;Temp;Humidity;BMP_temperature;BMP_pressure;BME280_temperature;BME280_humidity;BME280_pressure;Samples;Min_cycle;Max_cycle;Signal;HPM_P1;HPM_P2
2023/02/09 00:02:25;;;;;;;;;;;;;;;-3.42;76.81;103258.30;105009;1288;61151;-74
2023/02/09 00:05:11;;;;;;;;;;;;;;;-3.44;76.79;103255.45;105045;1294;61176;-75
2023/02/09 00:07:58;;;;;;;;;;;;;;;-3.47;76.81;103245.63;104923;1289;74138;-75
2023/02/09 00:10:44;;;;;;;;;;;;;;;-3.48;76.82;103246.21;105002;1290;67647;-75
2023/02/09 00:13:30;;;;;;;;;;;;;;;-3.49;76.77;103251.33;104983;1295;70590;-74
2023/02/09 00:16:16;;;;;;;;;;;;;;;-3.53;76.72;103247.13;105002;1289;59390;-74
2023/02/09 00:19:02;;;;;;;;;;;;;;;-3.55;76.80;103243.43;104994;1292;61179;-74
2023/02/09 00:21:48;;;;;;;;;;;;;;;-3.56;76.84;103243.96;104981;1291;76085;-75
2023/02/09 00:24:35;;;;;;;;;;;;;;;-3.59;76.80;103242.56;104846;1289;66412;-75
2023/02/09 00:27:21;;;;;;;;;;;;;;;-3.61;76.97;103243.07;105015;1292;71879;-75
2023/02/09 00:30:07;;;;;;;;;;;;;;;-3.62;76.92;103242.44;105052;1290;61212;-74
2023/02/09 00:32:54;;;;;;;;;;;;;;;-3.63;76.95;103233.27;105027;1288;59616;-74
2023/02/09 00:35:40;;;;;;;;;;;;;;;-3.64;76.98;103230.55;105018;1291;73230;-75
2023/02/09 00:38:27;;;;;;;;;;;;;;;-3.64;76.93;103222.97;106091;1289;67283;-75
2023/02/09 00:41:14;;;;;;;;;;;;;;;-3.63;76.99;103214.92;105671;1294;72545;-75
2023/02/09 00:44:00;;;;;;;;;;;;;;;-3.61;76.99;103211.66;105019;1290;59716;-75
2023/02/09 00:46:47;;;;;;;;;;;;;;;-3.62;77.00;103209.98;105025;1292;61093;-75
2023/02/09 00:49:34;;;;;;;;;;;;;;;-3.61;77.00;103204.25;104902;1289;75033;-75
2023/02/09 00:52:20;;;;;;;;;;;;;;;-3.62;76.98;103202.52;104955;1291;70034;-75
2023/02/09 00:55:06;;;;;;;;;;;;;;;-3.64;76.99;103195.28;104965;1288;74031;-74
2023/02/09 00:57:52;;;;;;;;;;;;;;;-3.68;76.99;103196.17;105028;1291;61310;-75
2023/02/09 01:00:38;;;;;;;;;;;;;;;-3.69;77.04;103192.43;105006;1290;61048;-75
2023/02/09 01:03:24;;;;;;;;;;;;;;;-3.68;77.06;103191.50;105090;1288;74594;-74
2023/02/09 01:06:10;;;;;;;;;;;;;;;-3.68;77.04;103192.28;105095;1289;69591;-75
2023/02/09 01:08:57;;;;;;;;;;;;;;;-3.68;77.05;103188.61;105064;1293;72171;-75
2023/02/09 01:11:43;;;;;;;;;;;;;;;-3.69;76.94;103191.06;105038;1289;61297;-75
2023/02/09 01:14:29;;;;;;;;;;;;;;;-3.70;76.99;103186.71;105069;1289;61255;-74
2023/02/09 01:17:15;;;;;;;;;;;;;;;-3.71;77.05;103182.98;105035;1293;78160;-74
2023/02/09 01:20:03;;;;;;;;;;;;;;;-3.71;76.93;103177.59;105080;1291;67900;-74
2023/02/09 01:22:49;;;;;;;;;;;;;;;-3.73;76.89;103172.66;105030;1288;72497;-75
2023/02/09 01:25:36;;;;;;;;;;;;;;;-3.76;76.91;103169.85;105081;1288;59360;-75
2023/02/09 01:28:22;;;;;;;;;;;;;;;-3.78;76.85;103164.83;105065;1288;59992;-75
2023/02/09 01:31:19;;;;;;;;;;;;;;;-3.79;76.89;103163.55;104989;1290;75101;-75
2023/02/09 01:34:06;;;;;;;;;;;;;;;-3.84;76.85;103161.33;105026;1291;69265;-75
2023/02/09 01:36:52;;;;;;;;;;;;;;;-3.87;76.90;103158.52;104866;1295;71391;-74
2023/02/09 01:39:38;;;;;;;;;;;;;;;-3.90;76.97;103153.70;104853;1289;61114;-74
2023/02/09 01:42:24;;;;;;;;;;;;;;;-3.92;76.91;103155.86;104887;1291;61181;-75
2023/02/09 01:45:18;;;;;;;;;;;;;;;-3.95;76.90;103152.10;104881;1295;73152;-74
2023/02/09 01:48:04;;;;;;;;;;;;;;;-3.98;76.99;103141.94;104821;1291;66837;-75
2023/02/09 01:50:52;;;;;;;;;;;;;;;-3.97;77.02;103135.22;104932;1293;72708;-74
2023/02/09 01:53:38;;;;;;;;;;;;;;;-4.00;76.94;103128.11;104933;1291;61282;-75
2023/02/09 01:56:28;;;;;;;;;;;;;;;-4.01;76.99;103125.86;104947;1291;61234;-75
2023/02/09 01:59:14;;;;;;;;;;;;;;;-4.03;76.99;103120.79;104934;1291;74121;-75
2023/02/09 02:02:01;;;;;;;;;;;;;;;-4.08;77.00;103118.88;104934;1294;67447;-75
2023/02/09 02:04:49;;;;;;;;;;;;;;;-4.10;76.99;103112.98;104945;1293;72987;-75
2023/02/09 02:07:39;;;;;;;;;;;;;;;-4.11;77.00;103105.13;104759;1295;61875;-74
2023/02/09 02:10:25;;;;;;;;;;;;;;;-4.13;76.93;103101.12;104973;1290;59270;-75
2023/02/09 02:13:11;;;;;;;;;;;;;;;-4.14;76.96;103094.10;104969;1290;73288;-75
2023/02/09 02:16:01;;;;;;;;;;;;;;;-4.16;76.91;103089.75;104995;1291;71227;-75
2023/02/09 02:19:09;;;;;;;;;;;;;;;-4.18;76.89;103084.08;104907;1291;71288;-75
2023/02/09 02:22:12;;;;;;;;;;;;;;;-4.17;76.98;103074.98;104927;1291;62235;-74
2023/02/09 02:25:11;;;;;;;;;;;;;;;-4.19;76.92;103071.29;104916;1290;61260;-74
2023/02/09 02:28:15;;;;;;;;;;;;;;;-4.20;77.00;103060.63;104967;1291;74869;-75
2023/02/09 02:31:11;;;;;;;;;;;;;;;-4.21;76.97;103061.27;104951;1291;67851;-74
2023/02/09 02:34:17;;;;;;;;;;;;;;;-4.21;77.03;103047.41;104892;1290;71534;-75
2023/02/09 02:37:12;;;;;;;;;;;;;;;-4.21;76.99;103042.33;104408;1296;59998;-75
2023/02/09 02:40:11;;;;;;;;;;;;;;;-4.22;77.03;103044.08;104461;1296;61201;-75
2023/02/09 02:43:36;;;;;;;;;;;;;;;-4.23;77.07;103036.58;104379;1297;74262;-75
2023/02/09 02:46:32;;;;;;;;;;;;;;;-4.21;77.08;103034.43;103978;1302;67901;-75
2023/02/09 02:49:21;;;;;;;;;;;;;;;-4.21;77.00;103035.48;103915;1302;71608;-74
2023/02/09 02:52:09;;;;;;;;;;;;;;;-4.20;77.00;103034.13;103761;1303;297893;-75
2023/02/09 02:55:04;;;;;;;;;;;;;;;-4.21;77.02;103029.06;103929;1303;59282;-75
2023/02/09 02:57:52;;;;;;;;;;;;;;;-4.22;77.05;103023.42;103974;1302;73533;-75
2023/02/09 03:00:41;;;;;;;;;;;;;;;-4.23;77.11;103020.14;103965;1304;67413;-74
2023/02/09 03:03:34;;;;;;;;;;;;;;;-4.21;77.03;103021.61;103972;1307;72549;-74
2023/02/09 03:06:20;;;;;;;;;;;;;;;-4.21;77.12;103017.10;104019;1303;59960;-75
2023/02/09 03:09:07;;;;;;;;;;;;;;;-4.21;77.03;103012.69;104008;1302;61505;-75
2023/02/09 03:11:56;;;;;;;;;;;;;;;-4.21;77.00;103013.04;103924;1303;74358;-75
2023/02/09 03:15:02;;;;;;;;;;;;;;;-4.22;77.13;103006.73;104119;1302;67727;-75
2023/02/09 03:17:48;;;;;;;;;;;;;;;-4.20;77.14;103006.55;104790;1290;73965;-77
2023/02/09 03:20:42;;;;;;;;;;;;;;;-4.19;77.13;103003.91;104982;1290;61649;-77
2023/02/09 03:23:48;;;;;;;;;;;;;;;-4.18;77.10;103000.81;104937;1291;61094;-75
2023/02/09 03:26:41;;;;;;;;;;;;;;;-4.17;77.17;102999.60;104998;1289;73330;-75
2023/02/09 03:29:28;;;;;;;;;;;;;;;-4.14;77.12;102998.27;104948;1291;68015;-74
2023/02/09 03:32:16;;;;;;;;;;;;;;;-4.13;77.17;102991.65;104965;1290;71124;-74
2023/02/09 03:35:03;;;;;;;;;;;;;;;-4.13;77.10;102989.45;104946;1291;59713;-74
2023/02/09 03:37:49;;;;;;;;;;;;;;;-4.14;77.04;102986.33;104952;1289;61173;-74
2023/02/09 03:40:35;;;;;;;;;;;;;;;-4.15;77.10;102986.93;104884;1290;74876;-75
2023/02/09 03:44:25;;;;;;;;;;;;;;;-4.16;77.15;102982.65;105078;1288;67298;-74
2023/02/09 03:46:27;;;;;;;;;;;;;;;-4.16;77.08;102985.85;104963;1291;71181;-74
2023/02/09 03:49:13;;;;;;;;;;;;;;;-4.16;77.11;102989.68;104990;1291;64032;-75
2023/02/09 03:52:00;;;;;;;;;;;;;;;-4.16;77.17;102992.20;104971;1290;61146;-75
2023/02/09 03:54:46;;;;;;;;;;;;;;;-4.16;77.11;102992.36;104856;1291;74656;-75
2023/02/09 03:57:32;;;;;;;;;;;;;;;-4.18;77.12;102992.76;104906;1290;67230;-74
2023/02/09 04:00:19;;;;;;;;;;;;;;;-4.18;77.08;102987.91;104983;1291;73116;-75
2023/02/09 04:03:05;;;;;;;;;;;;;;;-4.18;77.14;102984.31;105032;1290;62240;-75
2023/02/09 04:05:51;;;;;;;;;;;;;;;-4.19;77.07;102980.05;104891;1291;61303;-74
2023/02/09 04:08:37;;;;;;;;;;;;;;;-4.19;77.12;102975.35;105027;1292;73756;-74
2023/02/09 04:11:24;;;;;;;;;;;;;;;-4.20;77.06;102967.34;105016;1289;67774;-75
2023/02/09 04:14:10;;;;;;;;;;;;;;;-4.22;77.13;102961.09;105048;1289;71247;-74
2023/02/09 04:16:56;;;;;;;;;;;;;;;-4.22;77.12;102964.09;104927;1290;60480;-74
2023/02/09 04:19:42;;;;;;;;;;;;;;;-4.25;77.09;102956.11;105015;1289;59922;-74
2023/02/09 04:22:28;;;;;;;;;;;;;;;-4.28;77.04;102954.37;105077;1290;74435;-75
2023/02/09 04:25:14;;;;;;;;;;;;;;;-4.30;76.98;102948.46;105009;1290;66555;-74
2023/02/09 04:28:00;;;;;;;;;;;;;;;-4.34;76.98;102943.29;104952;1291;71836;-74
2023/02/09 04:30:50;;;;;;;;;;;;;;;-4.37;77.06;102939.81;105021;1289;59557;-74
2023/02/09 04:33:37;;;;;;;;;;;;;;;-4.40;77.05;102937.80;104842;1293;61229;-74
2023/02/09 04:36:23;;;;;;;;;;;;;;;-4.40;77.16;102939.38;104920;1289;77470;-74
2023/02/09 04:39:09;;;;;;;;;;;;;;;-4.40;77.17;102939.08;105071;1293;66261;-74
2023/02/09 04:41:55;;;;;;;;;;;;;;;-4.40;77.08;102933.75;104979;1290;72006;-74
2023/02/09 04:44:41;;;;;;;;;;;;;;;-4.42;77.03;102931.05;104889;1289;61151;-74
2023/02/09 04:47:28;;;;;;;;;;;;;;;-4.45;77.05;102926.08;105043;1291;59130;-74
2023/02/09 04:50:14;;;;;;;;;;;;;;;-4.49;77.02;102928.08;105002;1290;74628;-74
2023/02/09 04:53:00;;;;;;;;;;;;;;;-4.52;77.02;102920.08;105035;1290;67401;-75
2023/02/09 04:55:47;;;;;;;;;;;;;;;-4.55;77.03;102914.83;104887;1290;73930;-74
2023/02/09 05:01:37;;;;;;;;;;;;;;;-4.59;77.04;102909.58;105062;1290;61403;-75
2023/02/09 05:04:24;;;;;;;;;;;;;;;-4.62;77.02;102908.84;104935;1291;75125;-74
2023/02/09 05:07:10;;;;;;;;;;;;;;;-4.65;77.01;102905.92;104813;1291;68508;-75
2023/02/09 05:09:56;;;;;;;;;;;;;;;-4.65;77.05;102895.95;104966;1290;72578;-74
2023/02/09 05:12:42;;;;;;;;;;;;;;;-4.67;77.04;102888.26;104848;1290;63783;-74
2023/02/09 05:15:28;;;;;;;;;;;;;;;-4.68;77.14;102882.46;105015;1290;61140;-75
2023/02/09 05:18:14;;;;;;;;;;;;;;;-4.69;77.13;102880.54;105051;1291;73603;-74
2023/02/09 05:21:00;;;;;;;;;;;;;;;-4.69;77.08;102877.81;104965;1289;67326;-75
2023/02/09 05:23:46;;;;;;;;;;;;;;;-4.70;77.16;102874.56;104989;1289;72291;-74
2023/02/09 05:26:32;;;;;;;;;;;;;;;-4.69;77.10;102879.69;105036;1290;63510;-74
2023/02/09 05:29:18;;;;;;;;;;;;;;;-4.69;77.15;102877.17;104953;1291;59689;-74
2023/02/09 05:32:05;;;;;;;;;;;;;;;-4.70;77.06;102877.41;104947;1290;73633;-74
2023/02/09 05:34:51;;;;;;;;;;;;;;;-4.72;77.17;102874.73;105032;1291;67881;-74
2023/02/09 05:37:37;;;;;;;;;;;;;;;-4.71;77.22;102875.20;105031;1292;71845;-74
2023/02/09 05:40:23;;;;;;;;;;;;;;;-4.69;77.18;102866.55;104979;1291;60805;-75
2023/02/09 05:43:10;;;;;;;;;;;;;;;-4.70;77.21;102865.02;105011;1290;61205;-74
2023/02/09 05:45:56;;;;;;;;;;;;;;;-4.70;77.21;102861.31;105018;1289;73343;-74
2023/02/09 05:48:42;;;;;;;;;;;;;;;-4.70;77.15;102860.09;104975;1290;66325;-74
2023/02/09 05:51:28;;;;;;;;;;;;;;;-4.70;77.16;102855.20;105046;1290;71362;-75
2023/02/09 05:54:14;;;;;;;;;;;;;;;-4.72;77.12;102851.36;105008;1290;61117;-75
2023/02/09 05:57:00;;;;;;;;;;;;;;;-4.73;77.10;102851.39;104937;1289;61726;-75
2023/02/09 05:59:46;;;;;;;;;;;;;;;-4.76;77.08;102851.54;105024;1289;75175;-75
2023/02/09 06:02:32;;;;;;;;;;;;;;;-4.75;77.15;102856.45;104995;1289;67362;-75
2023/02/09 06:05:20;;;;;;;;;;;;;;;-4.75;77.16;102855.13;104989;1291;71142;-75
2023/02/09 06:08:06;;;;;;;;;;;;;;;-4.76;77.13;102851.07;105045;1289;61115;-75
2023/02/09 06:10:52;;;;;;;;;;;;;;;-4.77;77.14;102849.80;105027;1289;59242;-75
2023/02/09 06:13:38;;;;;;;;;;;;;;;-4.75;77.23;102855.98;105080;1288;73652;-75
2023/02/09 06:16:25;;;;;;;;;;;;;;;-4.75;77.19;102854.33;105023;1293;67705;-75
2023/02/09 06:19:15;;;;;;;;;;;;;;;-4.74;77.24;102854.69;104852;1288;71486;-75
2023/02/09 06:22:01;;;;;;;;;;;;;;;-4.75;77.05;102855.98;104889;1288;61541;-75
2023/02/09 06:24:47;;;;;;;;;;;;;;;-4.77;77.11;102851.77;104907;1291;61172;-75
2023/02/09 06:27:34;;;;;;;;;;;;;;;-4.78;77.07;102853.39;104996;1289;74599;-75
2023/02/09 06:30:20;;;;;;;;;;;;;;;-4.77;77.15;102850.73;105022;1291;70051;-75
2023/02/09 06:33:06;;;;;;;;;;;;;;;-4.77;77.19;102851.11;104777;1289;74063;-75
2023/02/09 06:35:52;;;;;;;;;;;;;;;-4.75;77.25;102847.23;104951;1294;59874;-75
2023/02/09 06:38:39;;;;;;;;;;;;;;;-4.74;77.25;102840.09;104917;1290;61255;-75
2023/02/09 06:41:25;;;;;;;;;;;;;;;-4.70;77.25;102840.05;104921;1293;74940;-75
2023/02/09 06:44:12;;;;;;;;;;;;;;;-4.68;77.23;102840.07;104955;1293;68474;-75
2023/02/09 06:46:58;;;;;;;;;;;;;;;-4.65;77.23;102836.08;104897;1290;71382;-75
2023/02/09 06:49:44;;;;;;;;;;;;;;;-4.62;77.28;102833.92;105141;1291;61481;-75
2023/02/09 06:52:30;;;;;;;;;;;;;;;-4.58;77.29;102833.63;105142;1289;59462;-75
2023/02/09 06:55:16;;;;;;;;;;;;;;;-4.53;77.24;102833.17;105105;1289;74592;-75
2023/02/09 06:58:02;;;;;;;;;;;;;;;-4.47;77.32;102834.79;105083;1290;68587;-75
2023/02/09 07:00:48;;;;;;;;;;;;;;;-4.35;77.51;102837.84;105030;1290;71134;-75
2023/02/09 07:03:34;;;;;;;;;;;;;;;-4.19;77.60;102835.18;105052;1290;61157;-75
2023/02/09 07:06:21;;;;;;;;;;;;;;;-4.03;77.55;102832.44;105065;1289;61728;-75
2023/02/09 07:09:07;;;;;;;;;;;;;;;-3.90;77.58;102831.58;105088;1289;76113;-75
2023/02/09 07:11:53;;;;;;;;;;;;;;;-3.77;77.57;102829.11;105009;1290;67285;-75
2023/02/09 07:14:39;;;;;;;;;;;;;;;-3.64;77.49;102832.73;105046;1292;72531;-75
2023/02/09 07:17:29;;;;;;;;;;;;;;;-3.37;77.80;102832.27;105134;1289;59597;-75
2023/02/09 07:20:15;;;;;;;;;;;;;;;-2.99;77.84;102828.38;105094;1293;60618;-75
2023/02/09 07:23:01;;;;;;;;;;;;;;;-2.69;77.70;102832.13;105093;1291;75151;-75
2023/02/09 07:25:47;;;;;;;;;;;;;;;-2.43;77.65;102831.96;105143;1289;67218;-76
2023/02/09 07:28:34;;;;;;;;;;;;;;;-2.36;77.38;102833.48;105030;1293;73300;-75
2023/02/09 07:31:20;;;;;;;;;;;;;;;-2.34;77.27;102834.64;105114;1288;61274;-75
2023/02/09 07:34:06;;;;;;;;;;;;;;;-2.29;77.41;102831.41;104893;1294;61099;-76
2023/02/09 07:36:52;;;;;;;;;;;;;;;-2.15;77.62;102835.84;105085;1289;76767;-75
2023/02/09 07:39:39;;;;;;;;;;;;;;;-1.84;77.88;102837.46;104919;1291;67146;-76
2023/02/09 07:42:25;;;;;;;;;;;;;;;-1.45;77.80;102835.92;105035;1293;71557;-76
2023/02/09 07:45:11;;;;;;;;;;;;;;;-1.26;77.49;102826.77;104998;1293;64124;-75
2023/02/09 07:47:57;;;;;;;;;;;;;;;-1.20;77.45;102825.65;105078;1291;59757;-75
2023/02/09 07:50:49;;;;;;;;;;;;;;;-1.19;77.36;102825.39;104925;1290;75986;-75
2023/02/09 07:53:35;;;;;;;;;;;;;;;-1.10;77.45;102825.83;105053;1291;67391;-75
2023/02/09 07:56:22;;;;;;;;;;;;;;;-0.94;77.53;102823.43;104994;1288;71242;-76
2023/02/09 07:59:09;;;;;;;;;;;;;;;-0.69;77.74;102823.07;104925;1290;61261;-75
2023/02/09 08:01:55;;;;;;;;;;;;;;;-0.44;77.55;102824.84;105027;1290;59404;-75
2023/02/09 08:04:42;;;;;;;;;;;;;;;-0.38;77.37;102824.73;105082;1291;73381;-75
2023/02/09 08:07:28;;;;;;;;;;;;;;;-0.31;77.44;102825.67;105016;1291;67448;-76
2023/02/09 08:10:16;;;;;;;;;;;;;;;-0.30;77.28;102827.60;104950;1289;71395;-75
2023/02/09 08:13:02;;;;;;;;;;;;;;;-0.36;77.28;102826.87;104947;1290;61444;-75
2023/02/09 08:15:53;;;;;;;;;;;;;;;-0.41;77.29;102823.86;105024;1292;61233;-75
2023/02/09 08:18:46;;;;;;;;;;;;;;;-0.37;77.41;102820.38;105086;1291;73296;-76
2023/02/09 08:21:35;;;;;;;;;;;;;;;-0.25;77.38;102825.23;105082;1290;70676;-76
2023/02/09 08:24:21;;;;;;;;;;;;;;;-0.23;77.28;102819.75;105059;1293;72131;-76
2023/02/09 08:27:07;;;;;;;;;;;;;;;-0.31;77.26;102814.84;105026;1288;61699;-76
2023/02/09 08:29:53;;;;;;;;;;;;;;;-0.44;77.28;102816.35;105010;1288;59567;-75
2023/02/09 08:32:39;;;;;;;;;;;;;;;-0.57;77.30;102812.80;104877;1288;75487;-75
2023/02/09 08:35:26;;;;;;;;;;;;;;;-0.65;77.45;102814.85;105053;1292;67517;-76
2023/02/09 08:38:12;;;;;;;;;;;;;;;-0.73;77.54;102815.23;104935;1291;71373;-76
2023/02/09 08:41:00;;;;;;;;;;;;;;;-0.81;77.62;102813.32;105118;1289;63681;-76
2023/02/09 08:43:47;;;;;;;;;;;;;;;-0.89;77.61;102811.63;104931;1290;60581;-76
2023/02/09 08:46:34;;;;;;;;;;;;;;;-0.93;77.70;102810.99;105009;1289;73391;-75
2023/02/09 08:49:20;;;;;;;;;;;;;;;-0.95;77.70;102810.50;105118;1291;70734;-76
2023/02/09 08:52:07;;;;;;;;;;;;;;;-0.96;77.68;102813.46;105076;1289;73931;-76
2023/02/09 08:54:53;;;;;;;;;;;;;;;-0.97;77.71;102813.09;105127;1291;61160;-75
2023/02/09 08:57:39;;;;;;;;;;;;;;;-0.97;77.72;102809.70;105092;1288;61416;-75
2023/02/09 09:00:26;;;;;;;;;;;;;;;-0.97;77.70;102808.37;105040;1291;74719;-75
2023/02/09 09:03:12;;;;;;;;;;;;;;;-0.97;77.72;102808.73;97612;1292;10002402;-75
2023/02/09 09:06:01;;;;;;;;;;;;;;;-0.97;77.73;102803.29;105105;1288;61384;-76
2023/02/09 09:08:47;;;;;;;;;;;;;;;-0.95;77.73;102800.38;104907;1288;63510;-76
2023/02/09 09:11:33;;;;;;;;;;;;;;;-0.91;77.70;102794.53;104964;1289;74585;-75
2023/02/09 09:14:19;;;;;;;;;;;;;;;-0.90;77.63;102793.07;105101;1290;67638;-76
2023/02/09 09:17:06;;;;;;;;;;;;;;;-0.89;77.70;102793.48;105079;1289;71400;-75
2023/02/09 09:19:54;;;;;;;;;;;;;;;-0.88;77.65;102792.02;105081;1291;61170;-76
2023/02/09 09:22:40;;;;;;;;;;;;;;;-0.87;77.63;102792.40;104952;1291;60917;-75
2023/02/09 09:25:26;;;;;;;;;;;;;;;-0.86;77.53;102793.36;105078;1291;74738;-76
2023/02/09 09:28:12;;;;;;;;;;;;;;;-0.83;77.61;102796.27;105022;1288;69989;-78
2023/02/09 09:31:04;;;;;;;;;;;;;;;-0.79;77.69;102792.79;104904;1293;74182;-77
2023/02/09 09:33:50;;;;;;;;;;;;;;;-0.74;77.66;102792.30;105109;1291;61581;-78
2023/02/09 09:36:36;;;;;;;;;;;;;;;-0.68;77.69;102794.67;105046;1291;59777;-77
2023/02/09 09:39:24;;;;;;;;;;;;;;;-0.64;77.65;102796.59;105102;1288;74979;-77
2023/02/09 09:42:22;;;;;;;;;;;;;;;-0.59;77.64;102793.23;105093;1290;68592;-78
2023/02/09 09:45:13;;;;;;;;;;;;;;;-0.53;77.65;102789.55;104820;1291;72243;-77
2023/02/09 09:47:59;;;;;;;;;;;;;;;-0.49;77.56;102785.21;104513;1290;60043;-77
2023/02/09 09:50:46;;;;;;;;;;;;;;;-0.45;77.67;102778.51;104579;1294;59658;-77
2023/02/09 09:53:34;;;;;;;;;;;;;;;-0.41;77.48;102779.44;105144;1291;76847;-77
2023/02/09 09:56:20;;;;;;;;;;;;;;;-0.36;77.62;102785.34;105118;1290;67367;-78
2023/02/09 09:59:13;;;;;;;;;;;;;;;-0.30;77.62;102786.73;105093;1290;72097;-78
2023/02/09 10:02:02;;;;;;;;;;;;;;;-0.26;77.52;102791.05;104982;1291;61096;-80
2023/02/09 10:04:49;;;;;;;;;;;;;;;-0.23;77.56;102787.54;104955;1290;59649;-80
2023/02/09 10:07:36;;;;;;;;;;;;;;;-0.20;77.55;102788.73;104998;1293;74337;-80
2023/02/09 10:10:36;;;;;;;;;;;;;;;-0.15;77.50;102790.73;105900;1291;67530;-78
2023/02/09 10:13:24;;;;;;;;;;;;;;;-0.09;77.55;102785.02;102030;1293;5002790;-78
2023/02/09 10:16:18;;;;;;;;;;;;;;;-0.04;77.57;102781.77;104949;1291;59414;-78
2023/02/09 10:19:15;;;;;;;;;;;;;;;0.00;77.51;102779.34;105138;1288;61448;-77
2023/02/09 10:22:01;;;;;;;;;;;;;;;0.04;77.41;102779.70;105016;1291;73230;-78
2023/02/09 10:24:47;;;;;;;;;;;;;;;0.07;77.52;102776.97;104911;1290;68900;-77
2023/02/09 10:27:34;;;;;;;;;;;;;;;0.12;77.54;102769.16;105064;1290;71284;-77
2023/02/09 10:30:25;;;;;;;;;;;;;;;0.18;77.59;102768.35;104964;1291;61282;-77
2023/02/09 10:33:13;;;;;;;;;;;;;;;0.24;77.51;102762.76;105096;1290;61110;-77
2023/02/09 10:36:02;;;;;;;;;;;;;;;0.28;77.45;102761.85;105008;1290;75023;-78
2023/02/09 10:38:48;;;;;;;;;;;;;;;0.32;77.31;102758.66;105048;1291;67169;-77
2023/02/09 10:41:34;;;;;;;;;;;;;;;0.36;77.32;102759.07;104887;1290;71233;-77
2023/02/09 10:44:32;;;;;;;;;;;;;;;0.40;77.22;102757.66;104992;1290;58893;-78
2023/02/09 10:47:18;;;;;;;;;;;;;;;0.45;77.33;102752.86;105121;1289;61091;-78
2023/02/09 10:50:10;;;;;;;;;;;;;;;0.51;77.34;102745.55;105077;1290;74632;-78
2023/02/09 10:53:01;;;;;;;;;;;;;;;0.56;77.15;102742.93;104961;1289;69352;-78
2023/02/09 10:55:47;;;;;;;;;;;;;;;0.60;77.22;102739.80;104982;1289;72077;-78
2023/02/09 10:58:36;;;;;;;;;;;;;;;0.64;77.16;102734.96;105009;1293;61189;-78
2023/02/09 11:01:24;;;;;;;;;;;;;;;0.69;77.13;102729.25;105096;1292;61351;-78
2023/02/09 11:04:21;;;;;;;;;;;;;;;0.73;77.07;102717.11;104911;1289;75425;-78
2023/02/09 11:07:18;;;;;;;;;;;;;;;0.78;77.15;102717.56;104953;1290;68401;-78
2023/02/09 11:10:11;;;;;;;;;;;;;;;0.86;76.94;102715.16;104835;1290;72612;-78
2023/02/09 11:12:58;;;;;;;;;;;;;;;0.91;76.89;102713.10;104855;1295;61274;-78
2023/02/09 11:15:55;;;;;;;;;;;;;;;0.95;76.72;102707.70;105030;1291;60018;-78
2023/02/09 11:18:45;;;;;;;;;;;;;;;0.98;76.80;102700.23;104964;1290;77334;-78
2023/02/09 11:21:54;;;;;;;;;;;;;;;1.01;76.77;102697.02;104666;1293;67236;-78
2023/02/09 11:24:45;;;;;;;;;;;;;;;1.07;76.60;102692.02;104854;1290;71023;-78
2023/02/09 11:28:10;;;;;;;;;;;;;;;1.10;76.68;102681.54;105032;1291;61356;-78
2023/02/09 11:31:11;;;;;;;;;;;;;;;1.16;76.73;102677.27;104300;1302;60576;-78
2023/02/09 11:34:21;;;;;;;;;;;;;;;1.16;76.60;102668.22;104397;1297;73959;-78
2023/02/09 11:37:18;;;;;;;;;;;;;;;1.16;76.61;102667.61;103899;1305;67342;-78
2023/02/09 11:40:31;;;;;;;;;;;;;;;1.19;76.65;102662.86;103799;1305;71217;-78
2023/02/09 11:43:24;;;;;;;;;;;;;;;1.24;76.53;102651.19;103173;1310;61120;-78
2023/02/09 11:46:16;;;;;;;;;;;;;;;1.26;76.44;102648.10;103207;1311;61377;-78
2023/02/09 11:49:04;;;;;;;;;;;;;;;1.27;76.50;102638.50;103134;1311;73431;-78
2023/02/09 11:51:52;;;;;;;;;;;;;;;1.31;76.54;102633.09;103044;1311;66970;-76
2023/02/09 11:54:38;;;;;;;;;;;;;;;1.35;76.47;102629.20;103181;1314;71427;-76
2023/02/09 11:57:38;;;;;;;;;;;;;;;1.38;76.53;102628.34;103092;1311;61296;-76
2023/02/09 12:00:28;;;;;;;;;;;;;;;1.42;76.46;102627.23;103157;1310;59544;-76
2023/02/09 12:03:14;;;;;;;;;;;;;;;1.45;76.34;102622.61;103762;1305;73241;-77
2023/02/09 12:06:01;;;;;;;;;;;;;;;1.47;76.40;102611.66;103801;1305;69235;-77
2023/02/09 12:09:26;;;;;;;;;;;;;;;1.50;76.45;102600.44;103665;1305;72534;-77
2023/02/09 12:12:32;;;;;;;;;;;;;;;1.56;76.40;102589.88;103214;1311;63079;-77
2023/02/09 12:15:26;;;;;;;;;;;;;;;1.59;76.23;102587.66;103146;1314;60681;-76
2023/02/09 12:18:20;;;;;;;;;;;;;;;1.62;76.18;102582.52;103125;1310;74025;-77
2023/02/09 12:21:07;;;;;;;;;;;;;;;1.62;76.05;102576.61;103760;1305;68676;-77
2023/02/09 12:23:54;;;;;;;;;;;;;;;1.64;76.11;102572.77;103821;1306;72648;-77
2023/02/09 12:26:41;;;;;;;;;;;;;;;1.65;76.00;102570.09;103848;1305;61304;-77
2023/02/09 12:29:38;;;;;;;;;;;;;;;1.64;75.99;102570.42;103867;1304;61253;-77
2023/02/09 12:32:29;;;;;;;;;;;;;;;1.66;75.92;102567.61;103858;1308;73418;-77
2023/02/09 12:35:23;;;;;;;;;;;;;;;1.69;75.86;102556.52;104691;1305;67273;-78
2023/02/09 12:38:16;;;;;;;;;;;;;;;1.73;75.96;102549.75;104852;1302;71561;-77
2023/02/09 12:41:03;;;;;;;;;;;;;;;1.75;75.87;102540.67;104834;1302;59056;-79
2023/02/09 12:44:03;;;;;;;;;;;;;;;1.76;75.78;102532.92;105209;1296;60814;-79
2023/02/09 12:47:09;;;;;;;;;;;;;;;1.77;75.68;102520.38;105256;1296;73453;-78
2023/02/09 12:50:01;;;;;;;;;;;;;;;1.78;75.78;102514.84;104930;1301;67453;-78
2023/02/09 12:53:16;;;;;;;;;;;;;;;1.80;75.80;102511.73;105160;1294;71437;-78
2023/02/09 12:56:22;;;;;;;;;;;;;;;1.83;75.74;102510.67;105377;1294;59117;-77
2023/02/09 12:59:16;;;;;;;;;;;;;;;1.86;75.80;102513.04;105078;1302;59047;-78
2023/02/09 13:02:22;;;;;;;;;;;;;;;1.88;75.75;102520.30;105041;1301;74080;-78
2023/02/09 13:05:14;;;;;;;;;;;;;;;1.91;75.46;102514.64;104557;1306;67426;-78
2023/02/09 13:08:29;;;;;;;;;;;;;;;1.92;75.48;102519.29;104500;1305;72550;-78
2023/02/09 13:11:21;;;;;;;;;;;;;;;1.93;75.51;102516.29;103889;1311;59073;-78
2023/02/09 13:14:10;;;;;;;;;;;;;;;1.95;75.48;102515.02;103753;1312;59286;-78
2023/02/09 13:17:28;;;;;;;;;;;;;;;1.96;75.44;102518.98;103835;1317;74275;-78
2023/02/09 13:20:34;;;;;;;;;;;;;;;1.98;75.38;102511.60;103432;1318;67387;-77
2023/02/09 13:23:39;;;;;;;;;;;;;;;2.01;75.42;102513.27;103448;1317;72629;-78
2023/02/09 13:26:26;;;;;;;;;;;;;;;2.02;75.17;102506.85;103407;1317;59663;-77
2023/02/09 13:29:12;;;;;;;;;;;;;;;2.02;75.30;102513.84;103551;1316;59412;-77
2023/02/09 13:32:06;;;;;;;;;;;;;;;2.03;75.30;102522.03;103521;1317;74087;-77
2023/02/09 13:35:15;;;;;;;;;;;;;;;2.04;75.29;102520.20;103501;1319;67441;-77
2023/02/09 13:38:21;;;;;;;;;;;;;;;2.06;75.28;102513.18;103715;1315;71203;-77
2023/02/09 13:41:21;;;;;;;;;;;;;;;2.08;75.21;102501.02;103700;1314;60449;-77
2023/02/09 13:44:21;;;;;;;;;;;;;;;2.10;75.11;102502.28;104191;1311;59463;-77
2023/02/09 13:47:12;;;;;;;;;;;;;;;2.10;74.92;102501.61;104267;1305;73520;-77
2023/02/09 13:49:59;;;;;;;;;;;;;;;2.09;74.91;102502.41;104697;1305;67490;-77
2023/02/09 13:52:46;;;;;;;;;;;;;;;2.10;74.98;102502.11;104565;1305;72550;-77
2023/02/09 13:55:33;;;;;;;;;;;;;;;2.11;75.03;102502.48;104725;1305;59350;-77
2023/02/09 13:58:21;;;;;;;;;;;;;;;2.11;74.89;102501.96;105188;1299;59015;-77
2023/02/09 14:01:12;;;;;;;;;;;;;;;2.10;74.78;102504.16;105144;1299;75090;-77
2023/02/09 14:04:05;;;;;;;;;;;;;;;2.10;74.83;102507.06;105041;1299;68308;-77
2023/02/09 14:06:54;;;;;;;;;;;;;;;2.09;74.87;102511.74;105099;1299;71452;-77
2023/02/09 14:09:47;;;;;;;;;;;;;;;2.09;74.72;102514.31;104970;1299;59140;-77
2023/02/09 14:12:49;;;;;;;;;;;;;;;2.09;74.68;102519.91;105076;1299;59551;-77
2023/02/09 14:18:47;;;;;;;;;;;;;;;2.05;74.61;102514.67;105838;1290;68224;-77
2023/02/09 14:21:54;;;;;;;;;;;;;;;2.04;74.50;102506.77;105845;1289;72418;-78
2023/02/09 14:24:42;;;;;;;;;;;;;;;2.02;74.33;102500.39;105327;1295;59239;-77
2023/02/09 14:27:31;;;;;;;;;;;;;;;2.00;73.98;102494.51;105268;1297;59268;-78
2023/02/09 14:30:19;;;;;;;;;;;;;;;1.98;74.31;102494.94;105279;1296;75007;-77
2023/02/09 14:33:20;;;;;;;;;;;;;;;1.96;74.24;102482.95;105358;1297;67426;-76